Terminal Aerodrome Forecast
Issued by NWS Cleveland, OH

Home | Current Version | Previous Version | Graphics & Text | Print | Product List | Glossary On
Versions: 1 2 3 4 5 6 7 8 9 10 11 12 13 14 15 16 17 18 19 20 21 22 23 24
000
FTUS41 KCLE 241100
TAFMFD
TAF
KMFD 241138Z 2412/2512 25004KT 6SM BR OVC005
     FM241300 25010KT P6SM OVC012
     FM250100 23006KT P6SM OVC020
     FM251100 04006KT 1 1/2SM -SN BR OVC006=

USA.gov is the U.S. government's official web portal to all federal, state and local government web resources and services.